createdAt,value
2022-11-05T00:00:42.310Z,13.45
2022-11-05T00:03:29.506Z,12.10
2022-11-05T00:06:17.619Z,12.63
2022-11-05T00:09:05.009Z,19.38
2022-11-05T00:11:52.325Z,13.05
2022-11-05T00:14:39.979Z,8.15
2022-11-05T00:17:09.010Z,7.95
2022-11-05T00:19:37.823Z,7.70
2022-11-05T00:22:27.901Z,7.60
2022-11-05T00:25:15.276Z,8.07
2022-11-05T00:27:50.028Z,8.05
2022-11-05T00:30:22.519Z,8.80
2022-11-05T00:32:52.955Z,8.97
2022-11-05T00:35:23.662Z,8.07
2022-11-05T00:37:55.032Z,9.10
2022-11-05T00:40:25.307Z,9.38
2022-11-05T00:43:12.605Z,9.32
2022-11-05T00:45:42.314Z,9.63
2022-11-05T00:48:29.572Z,9.18
2022-11-05T00:50:58.821Z,9.30
2022-11-05T00:53:27.629Z,10.73
2022-11-05T00:55:57.801Z,10.18
2022-11-05T00:58:28.244Z,9.65
2022-11-05T01:01:01.984Z,10.38
2022-11-05T01:03:36.898Z,10.82
2022-11-05T01:06:17.732Z,10.38
2022-11-05T01:08:48.185Z,10.47
2022-11-05T01:11:34.063Z,9.75
2022-11-05T01:14:06.410Z,10.20
2022-11-05T01:16:36.266Z,9.63
2022-11-05T01:19:08.297Z,10.25
2022-11-05T01:21:37.746Z,10.02
2022-11-05T01:24:06.936Z,10.23
2022-11-05T01:26:36.302Z,10.07
2022-11-05T01:29:05.166Z,9.95
2022-11-05T01:31:34.298Z,9.90
2022-11-05T01:34:03.250Z,9.82
2022-11-05T01:36:32.572Z,10.65
2022-11-05T01:39:02.872Z,10.60
2022-11-05T01:41:32.181Z,10.60
2022-11-05T01:44:01.704Z,10.60
2022-11-05T01:46:43.786Z,10.98
2022-11-05T01:49:24.163Z,10.82
2022-11-05T01:51:53.788Z,9.65
2022-11-05T01:54:27.646Z,9.85
2022-11-05T01:57:05.391Z,10.00
2022-11-05T01:59:44.174Z,10.20
2022-11-05T02:02:13.527Z,10.45
2022-11-05T02:04:51.459Z,11.23
2022-11-05T02:07:22.089Z,11.20
2022-11-05T02:09:56.205Z,11.15
2022-11-05T02:12:26.335Z,10.98
2022-11-05T02:14:55.260Z,10.20
2022-11-05T02:17:47.459Z,10.95
2022-11-05T02:20:25.312Z,11.38
2022-11-05T02:23:26.740Z,10.93
2022-11-05T02:26:15.398Z,9.13
2022-11-05T02:28:47.121Z,9.83
2022-11-05T02:31:36.230Z,10.40
2022-11-05T02:34:32.330Z,10.07
2022-11-05T02:37:11.686Z,10.85
2022-11-05T02:40:11.599Z,10.77
2022-11-05T02:42:43.303Z,10.32
2022-11-05T02:45:15.297Z,10.45
2022-11-05T02:47:53.242Z,10.63
2022-11-05T02:50:43.794Z,10.80
2022-11-05T02:53:43.285Z,10.45
2022-11-05T02:56:28.138Z,10.82
2022-11-05T02:58:57.252Z,10.80
2022-11-05T03:01:26.291Z,11.60
2022-11-05T03:04:04.933Z,10.68
2022-11-05T03:06:41.109Z,11.00
2022-11-05T03:09:16.332Z,11.05
2022-11-05T03:12:03.597Z,10.65
2022-11-05T03:14:41.710Z,11.00
2022-11-05T03:17:19.834Z,11.68
2022-11-05T03:20:12.389Z,11.95
2022-11-05T03:22:56.121Z,11.15
2022-11-05T03:25:30.114Z,11.45
2022-11-05T03:28:04.941Z,14.38
2022-11-05T03:30:36.897Z,16.40
2022-11-05T03:33:13.385Z,15.00
2022-11-05T03:35:50.645Z,15.43
2022-11-05T03:38:29.229Z,16.10
2022-11-05T03:41:03.032Z,15.95
2022-11-05T03:43:43.155Z,16.52
2022-11-05T03:46:46.810Z,15.90
2022-11-05T03:49:22.769Z,15.55
2022-11-05T03:52:07.447Z,17.27
2022-11-05T03:54:38.109Z,15.52
2022-11-05T03:57:11.517Z,15.10
2022-11-05T03:59:46.809Z,12.65
2022-11-05T04:02:18.509Z,15.57
2022-11-05T04:04:47.997Z,15.90
2022-11-05T04:07:34.994Z,14.52
2022-11-05T04:10:22.885Z,15.95
2022-11-05T04:13:10.350Z,15.68
2022-11-05T04:15:57.897Z,14.53
2022-11-05T04:18:27.564Z,16.10
2022-11-05T04:21:14.673Z,14.27
2022-11-05T04:24:02.328Z,14.43
2022-11-05T04:26:32.625Z,14.38
2022-11-05T04:29:20.478Z,13.43
2022-11-05T04:31:49.898Z,12.93
2022-11-05T04:34:19.957Z,13.13
2022-11-05T04:36:50.856Z,13.45
2022-11-05T04:39:21.384Z,13.45
2022-11-05T04:41:50.910Z,14.07
2022-11-05T04:44:19.745Z,14.13
2022-11-05T04:46:48.932Z,14.30
2022-11-05T04:49:17.900Z,14.48
2022-11-05T04:51:47.098Z,14.90
2022-11-05T04:54:16.393Z,14.85
2022-11-05T04:56:45.749Z,14.32
2022-11-05T04:59:14.998Z,15.20
2022-11-05T05:01:44.809Z,15.00
2022-11-05T05:04:13.906Z,15.32
2022-11-05T05:06:43.384Z,15.68
2022-11-05T05:09:12.296Z,15.25
2022-11-05T05:11:42.253Z,15.95
2022-11-05T05:14:11.131Z,16.33
2022-11-05T05:16:40.405Z,15.85
2022-11-05T05:19:09.380Z,15.60
2022-11-05T05:21:41.883Z,15.50
2022-11-05T05:24:16.018Z,16.00
2022-11-05T05:26:47.801Z,14.60
2022-11-05T05:29:18.168Z,14.05
2022-11-05T05:31:47.415Z,15.57
2022-11-05T05:34:17.031Z,15.18
2022-11-05T05:36:46.370Z,16.35
2022-11-05T05:39:15.224Z,16.35
2022-11-05T05:41:44.346Z,17.83
2022-11-05T05:44:18.379Z,17.45
2022-11-05T05:46:49.399Z,17.97
2022-11-05T05:49:18.652Z,18.38
2022-11-05T05:51:50.541Z,18.25
2022-11-05T05:54:19.943Z,18.60
2022-11-05T05:56:48.744Z,19.10
2022-11-05T05:59:17.841Z,18.45
2022-11-05T06:01:46.809Z,19.15
2022-11-05T06:04:16.958Z,18.65
2022-11-05T06:06:47.855Z,19.88
2022-11-05T06:09:17.459Z,18.42
2022-11-05T06:11:46.305Z,17.25
2022-11-05T06:14:15.576Z,17.03
2022-11-05T06:16:44.363Z,17.75
2022-11-05T06:19:13.484Z,18.10
2022-11-05T06:21:42.458Z,17.55
2022-11-05T06:24:11.932Z,17.00
2022-11-05T06:26:44.060Z,16.77
2022-11-05T06:29:13.195Z,13.52
2022-11-05T06:31:43.299Z,13.83
2022-11-05T06:34:12.613Z,13.93
2022-11-05T06:36:41.620Z,14.70
2022-11-05T06:39:14.441Z,14.48
2022-11-05T06:42:11.809Z,12.93
2022-11-05T06:44:35.211Z,12.80
2022-11-05T06:47:04.539Z,13.52
2022-11-05T06:49:33.549Z,13.97
2022-11-05T06:52:09.919Z,13.23
2022-11-05T06:54:39.176Z,15.27
2022-11-05T06:57:10.763Z,16.83
2022-11-05T06:59:43.243Z,17.05
2022-11-05T07:02:14.713Z,18.08
2022-11-05T07:04:43.857Z,20.00
2022-11-05T07:07:12.813Z,21.92
2022-11-05T07:09:44.180Z,22.13
2022-11-05T07:12:13.327Z,21.52
2022-11-05T07:14:42.618Z,21.42
2022-11-05T07:17:11.858Z,20.80
2022-11-05T07:19:40.688Z,20.47
2022-11-05T07:22:09.790Z,21.25
2022-11-05T07:24:39.664Z,22.75
2022-11-05T07:27:08.979Z,21.35
2022-11-05T07:29:37.898Z,20.88
2022-11-05T07:32:07.473Z,21.10
2022-11-05T07:34:36.381Z,21.40
2022-11-05T07:37:05.376Z,20.35
2022-11-05T07:39:34.364Z,19.87
2022-11-05T07:42:11.515Z,20.45
2022-11-05T07:44:41.435Z,20.20
2022-11-05T07:47:10.299Z,20.73
2022-11-05T07:49:39.151Z,21.38
2022-11-05T07:52:08.057Z,20.73
2022-11-05T07:54:36.917Z,19.73
2022-11-05T07:57:05.906Z,20.55
2022-11-05T07:59:35.018Z,20.33
2022-11-05T08:02:04.392Z,20.55
2022-11-05T08:04:33.619Z,20.07
2022-11-05T08:07:02.777Z,19.35
2022-11-05T08:09:31.616Z,20.00
2022-11-05T08:12:03.112Z,20.80
2022-11-05T08:14:32.654Z,20.15
2022-11-05T08:17:01.821Z,21.00
2022-11-05T08:19:31.171Z,20.67
2022-11-05T08:22:00.163Z,20.13
2022-11-05T08:24:29.185Z,19.73
2022-11-05T08:26:58.079Z,19.08
2022-11-05T08:29:27.595Z,20.10
2022-11-05T08:31:56.525Z,20.10
2022-11-05T08:34:25.704Z,20.45
2022-11-05T08:36:54.697Z,20.60
2022-11-05T08:39:23.902Z,20.05
2022-11-05T08:41:53.018Z,19.30
2022-11-05T08:44:22.595Z,18.05
2022-11-05T08:46:52.652Z,17.23
2022-11-05T08:49:21.823Z,16.20
2022-11-05T08:51:51.104Z,15.45
2022-11-05T08:54:20.024Z,16.88
2022-11-05T08:56:48.998Z,16.90
2022-11-05T08:59:18.592Z,16.60
2022-11-05T09:01:47.883Z,17.20
2022-11-05T09:04:16.895Z,17.45
2022-11-05T09:06:46.378Z,16.50
2022-11-05T09:09:15.571Z,16.83
2022-11-05T09:12:10.696Z,16.50
2022-11-05T09:14:33.951Z,16.45
2022-11-05T09:17:02.751Z,16.95
2022-11-05T09:19:31.801Z,17.23
2022-11-05T09:22:01.594Z,18.42
2022-11-05T09:24:30.589Z,18.30
2022-11-05T09:26:59.860Z,18.23
2022-11-05T09:29:29.480Z,18.83
2022-11-05T09:31:58.948Z,17.88
2022-11-05T09:34:28.697Z,17.80
2022-11-05T09:36:58.861Z,17.25
2022-11-05T09:39:28.623Z,18.40
2022-11-05T09:42:06.816Z,17.08
2022-11-05T09:44:48.620Z,17.63
2022-11-05T09:47:25.930Z,17.23
2022-11-05T09:49:58.603Z,16.90
2022-11-05T09:52:31.611Z,17.48
2022-11-05T09:55:00.906Z,17.85
2022-11-05T09:57:36.395Z,17.55
2022-11-05T10:00:09.266Z,16.95
2022-11-05T10:02:55.968Z,16.50
2022-11-05T10:05:27.562Z,17.27
2022-11-05T10:08:06.529Z,16.90
2022-11-05T10:11:01.405Z,15.13
2022-11-05T10:13:45.525Z,14.95
2022-11-05T10:16:37.291Z,15.52
2022-11-05T10:19:10.810Z,14.98
2022-11-05T10:24:29.977Z,14.23
2022-11-05T10:27:00.085Z,14.18
2022-11-05T10:29:35.010Z,14.00
2022-11-05T10:32:12.046Z,13.90
2022-11-05T10:34:42.285Z,14.13
2022-11-05T10:37:11.776Z,13.55
2022-11-05T10:39:40.672Z,13.93
2022-11-05T10:42:34.379Z,14.25
2022-11-05T10:45:13.684Z,14.10
2022-11-05T10:48:24.139Z,13.80
2022-11-05T10:50:53.407Z,13.52
2022-11-05T10:53:28.170Z,12.98
2022-11-05T10:55:59.618Z,12.77
2022-11-05T10:58:33.678Z,12.60
2022-11-05T11:01:07.483Z,12.48
2022-11-05T11:03:47.020Z,12.88
2022-11-05T11:06:28.410Z,12.20
2022-11-05T11:08:59.882Z,12.73
2022-11-05T11:11:37.094Z,13.07
2022-11-05T11:14:15.410Z,12.38
2022-11-05T11:16:46.744Z,12.98
2022-11-05T11:19:31.228Z,13.68
2022-11-05T11:22:06.617Z,13.30
2022-11-05T11:24:55.450Z,13.48
2022-11-05T11:27:29.416Z,12.52
2022-11-05T11:30:04.300Z,12.93
2022-11-05T11:32:40.442Z,12.30
2022-11-05T11:35:23.426Z,13.52
2022-11-05T11:37:58.401Z,12.50
2022-11-05T11:40:37.760Z,12.97
2022-11-05T11:43:37.895Z,12.88
2022-11-05T11:46:19.768Z,13.43
2022-11-05T11:48:50.359Z,13.27
2022-11-05T11:51:49.844Z,13.77
2022-11-05T11:54:28.989Z,13.38
2022-11-05T11:56:58.573Z,12.70
2022-11-05T12:00:01.725Z,12.95
2022-11-05T12:02:34.572Z,11.68
2022-11-05T12:05:29.111Z,12.90
2022-11-05T12:08:19.985Z,13.10
2022-11-05T12:11:05.429Z,12.25
2022-11-05T12:14:13.459Z,13.10
2022-11-05T12:16:54.477Z,12.55
2022-11-05T12:19:45.469Z,13.07
2022-11-05T12:22:32.995Z,12.98
2022-11-05T12:25:26.009Z,12.98
2022-11-05T12:27:55.350Z,13.40
2022-11-05T12:30:25.046Z,13.48
2022-11-05T12:33:07.226Z,13.77
2022-11-05T12:35:49.965Z,12.93
2022-11-05T12:38:38.312Z,12.88
2022-11-05T12:41:36.812Z,13.63
2022-11-05T12:44:16.445Z,13.57
2022-11-05T12:46:53.609Z,13.25
2022-11-05T12:49:52.798Z,12.50
2022-11-05T12:52:48.938Z,12.98
2022-11-05T12:55:25.347Z,13.10
2022-11-05T12:58:10.178Z,12.77
2022-11-05T13:00:43.576Z,13.63
2022-11-05T13:03:50.952Z,12.60
2022-11-05T13:06:41.315Z,13.90
2022-11-05T13:09:19.410Z,14.68
2022-11-05T13:12:14.616Z,13.57
2022-11-05T13:15:16.225Z,13.73
2022-11-05T13:17:56.874Z,14.35
2022-11-05T13:20:33.345Z,14.77
2022-11-05T13:23:14.905Z,15.27
2022-11-05T13:25:56.075Z,15.07
2022-11-05T13:28:25.651Z,15.50
2022-11-05T13:30:59.542Z,15.40
2022-11-05T13:33:57.601Z,14.48
2022-11-05T13:36:51.339Z,14.82
2022-11-05T13:39:39.303Z,13.75
2022-11-05T13:42:55.186Z,14.20
2022-11-05T13:46:05.825Z,13.93
2022-11-05T13:49:17.331Z,15.27
2022-11-05T13:52:06.873Z,14.30
2022-11-05T13:55:03.105Z,13.45
2022-11-05T13:57:49.806Z,11.00
2022-11-05T14:00:32.865Z,11.73
2022-11-05T14:03:15.814Z,9.65
2022-11-05T14:05:50.696Z,12.80
2022-11-05T14:08:25.663Z,11.88
2022-11-05T14:11:08.665Z,11.90
2022-11-05T14:13:44.711Z,12.95
2022-11-05T14:16:23.902Z,13.32
2022-11-05T14:19:17.657Z,12.90
2022-11-05T14:21:51.437Z,14.20
2022-11-05T14:24:28.349Z,12.13
2022-11-05T14:27:03.426Z,13.68
2022-11-05T14:29:52.805Z,15.13
2022-11-05T14:32:21.882Z,9.55
2022-11-05T14:35:01.675Z,9.90
2022-11-05T14:37:42.785Z,15.37
2022-11-05T14:40:43.323Z,11.38
2022-11-05T14:43:15.479Z,7.38
2022-11-05T14:45:58.701Z,5.25
2022-11-05T14:48:52.569Z,4.53
2022-11-05T14:51:53.581Z,4.75
2022-11-05T14:54:33.516Z,4.28
2022-11-05T14:57:03.803Z,5.10
2022-11-05T14:59:53.713Z,5.73
2022-11-05T15:02:28.179Z,3.42
2022-11-05T15:05:34.285Z,3.40
2022-11-05T15:08:28.484Z,3.00
2022-11-05T15:11:13.985Z,2.85
2022-11-05T15:14:08.994Z,3.08
2022-11-05T15:16:44.621Z,3.30
2022-11-05T15:19:32.196Z,2.50
2022-11-05T15:22:06.785Z,2.85
2022-11-05T15:24:36.936Z,2.70
2022-11-05T15:27:31.095Z,5.87
2022-11-05T15:30:15.666Z,2.47
2022-11-05T15:32:45.703Z,2.95
2022-11-05T15:35:28.147Z,2.80
2022-11-05T15:38:02.382Z,3.08
2022-11-05T15:40:34.546Z,2.63
2022-11-05T15:43:23.401Z,3.65
2022-11-05T15:46:16.095Z,4.20
2022-11-05T15:48:53.892Z,5.90
2022-11-05T15:51:26.080Z,4.55
2022-11-05T15:56:54.309Z,4.80
2022-11-05T15:59:25.858Z,2.67
2022-11-05T16:02:26.915Z,2.20
2022-11-05T16:04:57.138Z,2.20
2022-11-05T16:07:26.906Z,1.80
2022-11-05T16:10:10.046Z,2.38
2022-11-05T16:12:42.311Z,6.28
2022-11-05T16:15:11.152Z,4.25
2022-11-05T16:17:53.338Z,4.70
2022-11-05T16:20:37.123Z,5.05
2022-11-05T16:23:25.882Z,4.03
2022-11-05T16:25:55.023Z,4.65
2022-11-05T16:28:29.654Z,3.30
2022-11-05T16:31:05.252Z,3.80
2022-11-05T16:33:47.347Z,16.50
2022-11-05T16:36:16.720Z,13.43
2022-11-05T16:38:45.998Z,14.48
2022-11-05T16:41:20.843Z,14.35
2022-11-05T16:44:01.180Z,20.58
2022-11-05T16:46:33.690Z,11.07
2022-11-05T16:49:02.525Z,7.78
2022-11-05T16:51:32.797Z,6.63
2022-11-05T16:54:02.306Z,7.07
2022-11-05T16:56:32.145Z,7.00
2022-11-05T16:59:01.824Z,12.43
2022-11-05T17:01:32.178Z,7.32
2022-11-05T17:04:01.242Z,7.25
2022-11-05T17:06:30.322Z,5.20
2022-11-05T17:08:59.268Z,13.50
2022-11-05T17:11:29.425Z,6.82
2022-11-05T17:13:58.634Z,10.60
2022-11-05T17:16:28.217Z,8.32
2022-11-05T17:18:57.501Z,8.65
2022-11-05T17:21:26.381Z,8.48
2022-11-05T17:23:55.586Z,6.20
2022-11-05T17:26:25.184Z,3.15
2022-11-05T17:28:54.027Z,1.60
2022-11-05T17:31:23.261Z,3.00
2022-11-05T17:33:56.618Z,6.65
2022-11-05T17:36:26.330Z,3.53
2022-11-05T17:38:55.286Z,4.95
2022-11-05T17:41:25.461Z,3.13
2022-11-05T17:43:57.123Z,4.80
2022-11-05T17:46:27.105Z,6.53
2022-11-05T17:48:56.072Z,5.10
2022-11-05T17:51:25.108Z,7.40
2022-11-05T17:53:54.501Z,5.28
2022-11-05T17:56:33.486Z,4.03
2022-11-05T17:59:04.555Z,5.25
2022-11-05T18:01:36.661Z,5.43
2022-11-05T18:04:08.985Z,9.82
2022-11-05T18:06:42.520Z,6.25
2022-11-05T18:09:13.269Z,5.35
2022-11-05T18:11:43.265Z,5.13
2022-11-05T18:14:12.757Z,3.53
2022-11-05T18:16:42.009Z,5.20
2022-11-05T18:19:10.951Z,4.10
2022-11-05T18:21:39.989Z,3.90
2022-11-05T18:24:09.827Z,8.37
2022-11-05T18:26:39.346Z,6.85
2022-11-05T18:29:08.241Z,5.10
2022-11-05T18:31:37.772Z,5.25
2022-11-05T18:34:11.327Z,6.60
2022-11-05T18:36:41.293Z,3.03
2022-11-05T18:39:10.495Z,2.92
2022-11-05T18:41:40.185Z,6.32
2022-11-05T18:44:09.204Z,4.78
2022-11-05T18:46:57.795Z,2.90
2022-11-05T18:49:28.475Z,4.30
2022-11-05T18:51:57.342Z,4.00
2022-11-05T18:54:26.442Z,8.15
2022-11-05T18:56:55.465Z,3.53
2022-11-05T18:59:40.071Z,4.10
2022-11-05T19:02:12.001Z,4.65
2022-11-05T19:04:46.846Z,3.67
2022-11-05T19:07:24.887Z,2.20
2022-11-05T19:09:54.125Z,2.10
2022-11-05T19:12:23.469Z,8.60
2022-11-05T19:14:53.290Z,8.15
2022-11-05T19:17:23.991Z,3.38
2022-11-05T19:19:52.922Z,7.22
2022-11-05T19:22:22.131Z,5.50
2022-11-05T19:24:50.968Z,7.53
2022-11-05T19:27:20.180Z,7.07
2022-11-05T19:29:49.336Z,3.10
2022-11-05T19:32:18.434Z,14.50
2022-11-05T19:34:48.305Z,7.17
2022-11-05T19:37:17.421Z,5.25
2022-11-05T19:39:46.691Z,5.28
2022-11-05T19:42:16.657Z,5.10
2022-11-05T19:44:45.646Z,6.80
2022-11-05T19:47:14.788Z,7.60
2022-11-05T19:49:43.726Z,18.27
2022-11-05T19:52:12.920Z,7.90
2022-11-05T19:54:41.845Z,19.70
2022-11-05T19:57:11.769Z,23.83
2022-11-05T19:59:40.729Z,12.88
2022-11-05T20:02:15.961Z,15.23
2022-11-05T20:04:45.677Z,11.70
2022-11-05T20:07:14.517Z,12.40
2022-11-05T20:09:43.616Z,16.70
2022-11-05T20:12:12.662Z,9.57
2022-11-05T20:14:41.634Z,22.60
2022-11-05T20:17:10.411Z,20.20
2022-11-05T20:19:40.535Z,24.20
2022-11-05T20:22:16.635Z,19.05
2022-11-05T20:24:45.882Z,14.32
2022-11-05T20:27:14.852Z,14.27
2022-11-05T20:29:44.303Z,23.30
2022-11-05T20:32:13.750Z,22.13
2022-11-05T20:34:42.862Z,11.70
2022-11-05T20:37:11.656Z,17.52
2022-11-05T20:39:41.090Z,16.52
2022-11-05T20:42:09.977Z,20.23
2022-11-05T20:44:39.179Z,17.05
2022-11-05T20:47:08.084Z,22.13
2022-11-05T20:49:37.274Z,29.58
2022-11-05T20:52:09.180Z,20.27
2022-11-05T20:54:38.771Z,20.85
2022-11-05T20:57:07.795Z,24.20
2022-11-05T20:59:36.967Z,21.58
2022-11-05T21:02:10.562Z,22.33
2022-11-05T21:04:42.849Z,17.88
2022-11-05T21:07:12.267Z,17.65
2022-11-05T21:09:41.048Z,13.80
2022-11-05T21:12:12.910Z,22.25
2022-11-05T21:14:44.138Z,26.98
2022-11-05T21:17:14.882Z,24.10
2022-11-05T21:19:44.177Z,14.20
2022-11-05T21:22:16.958Z,22.10
2022-11-05T21:24:46.206Z,18.10
2022-11-05T21:27:15.085Z,19.83
2022-11-05T21:29:44.766Z,22.35
2022-11-05T21:32:13.666Z,29.08
2022-11-05T21:34:42.964Z,20.63
2022-11-05T21:37:11.886Z,17.95
2022-11-05T21:39:40.940Z,14.80
2022-11-05T21:42:10.002Z,20.10
2022-11-05T21:44:39.107Z,12.38
2022-11-05T21:47:10.803Z,10.63
2022-11-05T21:49:40.661Z,13.07
2022-11-05T21:52:30.768Z,8.77
2022-11-05T21:55:18.389Z,16.48
2022-11-05T21:58:05.527Z,11.23
2022-11-05T22:00:34.899Z,19.95
2022-11-05T22:03:03.774Z,14.50
2022-11-05T22:05:33.240Z,5.32
2022-11-05T22:08:02.108Z,16.45
2022-11-05T22:10:31.202Z,5.40
2022-11-05T22:13:00.145Z,6.57
2022-11-05T22:15:29.690Z,6.30
2022-11-05T22:17:58.473Z,5.60
2022-11-05T22:20:27.705Z,8.30
2022-11-05T22:22:56.653Z,5.80
2022-11-05T22:25:26.619Z,5.38
2022-11-05T22:27:55.487Z,7.22
2022-11-05T22:30:24.518Z,5.13
2022-11-05T22:32:53.535Z,4.40
2022-11-05T22:35:22.574Z,8.97
2022-11-05T22:37:51.449Z,4.30
2022-11-05T22:40:23.860Z,4.65
2022-11-05T22:42:53.302Z,4.47
2022-11-05T22:45:22.077Z,4.47
2022-11-05T22:47:51.308Z,3.95
2022-11-05T22:50:20.308Z,3.97
2022-11-05T22:52:49.342Z,3.45
2022-11-05T22:55:18.307Z,3.28
2022-11-05T22:57:47.479Z,2.65
2022-11-05T23:00:21.056Z,2.47
2022-11-05T23:02:50.458Z,2.50
2022-11-05T23:05:19.492Z,2.58
2022-11-05T23:08:07.543Z,3.03
2022-11-05T23:10:58.244Z,3.40
2022-11-05T23:13:27.560Z,3.50
2022-11-05T23:16:14.461Z,3.03
2022-11-05T23:19:01.855Z,2.58
2022-11-05T23:21:49.093Z,2.78
2022-11-05T23:24:18.560Z,2.30
2022-11-05T23:26:53.215Z,2.85
2022-11-05T23:29:25.535Z,2.20
2022-11-05T23:32:13.572Z,2.08
2022-11-05T23:34:43.831Z,2.30
2022-11-05T23:37:31.392Z,1.95
2022-11-05T23:40:00.832Z,1.60
2022-11-05T23:42:47.833Z,2.00
2022-11-05T23:45:35.920Z,1.83
2022-11-05T23:48:32.650Z,1.60
2022-11-05T23:51:06.426Z,1.75
2022-11-05T23:53:38.327Z,2.03
2022-11-05T23:56:10.731Z,1.60
2022-11-05T23:58:41.186Z,1.40
